Time;durP1;ratioP1;P1;durP2;ratioP2;P2;SDS_P1;SDS_P2;PMS_P1;PMS_P2;Temp;Humidity;BMP_temperature;BMP_pressure;BME280_temperature;BME280_humidity;BME280_pressure;Samples;Min_cycle;Max_cycle;Signal;HPM_P1;HPM_P2
2022/02/19 00:02:12;;;;;;;7.43;3.03;;;;;;;8.73;67.87;96964.44;5111722;28;20027;-77
2022/02/19 00:04:39;;;;;;;7.07;3.25;;;;;;;8.76;67.57;96974.75;5109114;28;20035;-78
2022/02/19 00:07:05;;;;;;;5.22;2.90;;;;;;;8.78;67.19;96972.47;5109824;28;20110;-78
2022/02/19 00:09:30;;;;;;;5.45;2.70;;;;;;;8.82;66.63;96973.44;5109169;28;20415;-77
2022/02/19 00:11:56;;;;;;;7.15;2.80;;;;;;;8.91;66.19;96971.50;5108828;28;20023;-76
2022/02/19 00:14:21;;;;;;;6.50;3.00;;;;;;;9.04;65.01;96982.63;5109743;28;20028;-77
2022/02/19 00:16:47;;;;;;;5.03;3.35;;;;;;;9.14;63.71;96982.28;5109787;28;20471;-77
2022/02/19 00:19:13;;;;;;;8.30;3.78;;;;;;;9.23;62.40;96977.59;5091442;28;20051;-77
2022/02/19 00:21:38;;;;;;;23.42;7.97;;;;;;;9.31;62.04;96984.19;5109032;28;20019;-76
2022/02/19 00:24:04;;;;;;;25.17;6.93;;;;;;;9.39;62.11;96996.25;5109295;28;20111;-77
2022/02/19 00:26:29;;;;;;;16.13;5.10;;;;;;;9.47;60.53;96987.22;5109410;28;20578;-76
2022/02/19 00:28:55;;;;;;;11.18;2.88;;;;;;;9.49;59.74;97000.56;5109026;28;20039;-75
2022/02/19 00:31:20;;;;;;;19.55;5.28;;;;;;;9.51;59.34;96998.31;5108706;28;20459;-75
2022/02/19 00:33:46;;;;;;;21.27;6.88;;;;;;;9.49;58.00;97001.38;5109363;28;20100;-75
2022/02/19 00:36:11;;;;;;;40.13;11.73;;;;;;;9.48;58.67;97008.00;5108740;28;20057;-76
2022/02/19 00:38:37;;;;;;;6.88;3.40;;;;;;;9.47;57.71;96997.34;5108658;28;20455;-77
2022/02/19 00:41:03;;;;;;;6.35;2.90;;;;;;;9.46;57.51;97009.44;5108662;28;20016;-76
2022/02/19 00:43:28;;;;;;;11.25;3.88;;;;;;;9.43;57.34;96999.94;5108784;28;20028;-77
2022/02/19 00:45:55;;;;;;;9.05;3.67;;;;;;;9.39;57.36;97002.50;5109280;28;20028;-76
2022/02/19 00:48:22;;;;;;;10.50;3.20;;;;;;;9.37;57.18;96991.09;5108926;28;20035;-76
2022/02/19 00:50:48;;;;;;;9.65;2.80;;;;;;;9.34;55.64;97016.38;5108184;28;21859;-76
2022/02/19 00:53:14;;;;;;;14.80;4.82;;;;;;;9.30;55.21;97022.81;5109023;28;20019;-76
2022/02/19 00:55:40;;;;;;;13.18;4.55;;;;;;;9.32;55.50;97024.13;5108893;28;20051;-76
2022/02/19 00:58:05;;;;;;;22.42;6.05;;;;;;;9.29;55.07;97002.03;5112953;28;20460;-77
2022/02/19 01:00:31;;;;;;;4.78;1.80;;;;;;;9.30;54.38;97011.88;5111866;28;20093;-76
2022/02/19 01:02:56;;;;;;;14.88;3.90;;;;;;;9.26;53.80;97014.47;5112160;28;20027;-77
2022/02/19 01:05:21;;;;;;;5.45;1.77;;;;;;;9.20;52.72;97004.81;5112341;28;20019;-76
2022/02/19 01:07:47;;;;;;;7.18;2.40;;;;;;;9.17;52.14;97002.72;5112642;28;20061;-75
2022/02/19 01:10:12;;;;;;;7.50;2.50;;;;;;;9.14;51.64;97004.16;5112027;28;20035;-75
2022/02/19 01:12:38;;;;;;;7.45;1.80;;;;;;;9.11;49.98;97012.19;5111814;28;20110;-76
2022/02/19 01:15:07;;;;;;;4.50;1.50;;;;;;;9.06;49.25;97002.25;5111815;28;20023;-75
2022/02/19 01:17:33;;;;;;;7.13;2.15;;;;;;;9.04;48.59;97015.44;5111738;28;20116;-76
2022/02/19 01:19:59;;;;;;;14.57;4.05;;;;;;;8.99;48.31;97032.00;5111778;28;20065;-76
2022/02/19 01:22:25;;;;;;;8.35;2.85;;;;;;;8.91;48.16;97034.41;5111757;28;20104;-76
2022/02/19 01:24:50;;;;;;;18.85;5.03;;;;;;;8.92;47.45;97040.69;5112457;28;20684;-76
2022/02/19 01:27:15;;;;;;;7.75;2.20;;;;;;;8.88;47.60;97028.78;5112309;28;20027;-76
2022/02/19 01:29:41;;;;;;;22.40;6.65;;;;;;;8.84;47.51;97036.00;5112249;28;20030;-75
2022/02/19 01:32:07;;;;;;;3.58;1.33;;;;;;;8.79;45.71;97034.22;5111701;28;20022;-76
2022/02/19 01:34:32;;;;;;;3.88;1.52;;;;;;;8.76;45.75;97057.53;5112082;28;20112;-75
2022/02/19 01:36:58;;;;;;;5.70;1.50;;;;;;;8.79;44.62;97050.63;5112132;28;20475;-76
2022/02/19 01:39:23;;;;;;;5.25;1.80;;;;;;;8.76;45.21;97056.75;5111621;28;20069;-76
2022/02/19 01:41:48;;;;;;;1.98;1.00;;;;;;;8.75;44.62;97060.59;5111671;28;20123;-76
2022/02/19 01:44:15;;;;;;;3.30;0.60;;;;;;;8.72;44.99;97080.38;5111646;28;20020;-76
2022/02/19 01:46:41;;;;;;;2.65;0.93;;;;;;;8.69;44.28;97078.28;5112183;28;20473;-76
2022/02/19 01:49:07;;;;;;;2.65;0.70;;;;;;;8.67;44.88;97085.97;5112199;28;20020;-75
2022/02/19 01:51:34;;;;;;;1.95;0.82;;;;;;;8.64;43.67;97090.97;5110880;28;20049;-75
2022/02/19 01:54:03;;;;;;;1.13;0.80;;;;;;;8.64;43.88;97092.88;5111489;28;20073;-76
2022/02/19 01:56:29;;;;;;;4.25;1.05;;;;;;;8.59;44.93;97093.84;5111053;28;20122;-76
2022/02/19 01:58:56;;;;;;;2.80;0.95;;;;;;;8.58;44.26;97116.81;5111535;28;20043;-76
2022/02/19 02:01:21;;;;;;;2.65;1.00;;;;;;;8.56;43.95;97121.78;5110676;28;20037;-75
2022/02/19 02:03:47;;;;;;;4.55;1.00;;;;;;;8.56;43.38;97118.25;5111024;28;20624;-76
2022/02/19 02:06:13;;;;;;;1.40;0.68;;;;;;;8.54;43.22;97121.28;5111442;28;20026;-76
2022/02/19 02:08:40;;;;;;;1.42;0.73;;;;;;;8.51;42.83;97135.59;5109793;28;20106;-76
2022/02/19 02:11:06;;;;;;;1.50;0.75;;;;;;;8.45;43.38;97123.97;5110227;28;20024;-76
2022/02/19 02:13:31;;;;;;;3.60;0.93;;;;;;;8.43;43.93;97119.94;5111216;28;20467;-76
2022/02/19 02:15:57;;;;;;;1.98;0.80;;;;;;;8.41;44.18;97144.03;5111488;28;20024;-76
2022/02/19 02:18:23;;;;;;;1.85;0.85;;;;;;;8.34;44.29;97147.22;5110789;28;20023;-76
2022/02/19 02:20:48;;;;;;;1.85;0.70;;;;;;;8.33;43.51;97151.06;5110661;28;20532;-75
2022/02/19 02:23:15;;;;;;;1.40;0.50;;;;;;;8.35;42.76;97167.94;5110476;28;20494;-75
2022/02/19 02:25:41;;;;;;;1.20;0.60;;;;;;;8.34;42.79;97178.09;5110645;28;20014;-76
2022/02/19 02:28:09;;;;;;;1.17;0.60;;;;;;;8.28;42.43;97171.13;5110521;28;20015;-76
2022/02/19 02:30:38;;;;;;;4.43;1.45;;;;;;;8.23;42.86;97167.72;5110114;28;20015;-76
2022/02/19 02:33:08;;;;;;;3.75;1.45;;;;;;;8.17;43.06;97176.03;5108608;28;20028;-76
2022/02/19 02:35:34;;;;;;;2.83;1.10;;;;;;;8.17;42.54;97161.59;5110615;28;20015;-75
2022/02/19 02:38:00;;;;;;;2.70;1.27;;;;;;;8.10;43.30;97164.78;5110469;28;20027;-76
2022/02/19 02:40:26;;;;;;;3.08;1.63;;;;;;;8.03;43.36;97167.91;5110109;28;20026;-75
2022/02/19 02:42:51;;;;;;;3.83;2.15;;;;;;;7.98;43.18;97172.72;5110239;28;20047;-75
2022/02/19 02:45:16;;;;;;;3.22;1.50;;;;;;;7.96;43.57;97180.41;5110131;28;20379;-75
2022/02/19 02:47:43;;;;;;;4.25;1.70;;;;;;;7.91;44.02;97186.81;5110209;28;20080;-76
2022/02/19 02:50:10;;;;;;;2.78;1.50;;;;;;;7.92;43.63;97193.88;5109962;28;20020;-75
2022/02/19 02:52:37;;;;;;;2.88;1.08;;;;;;;7.88;43.40;97198.34;5109645;28;20031;-75
2022/02/19 02:55:05;;;;;;;3.15;1.30;;;;;;;7.81;44.14;97196.03;5109822;28;20036;-75
2022/02/19 02:57:30;;;;;;;3.05;1.00;;;;;;;7.73;44.37;97192.13;5110206;28;20061;-76
2022/02/19 02:59:56;;;;;;;3.25;1.02;;;;;;;7.67;44.48;97209.72;5109981;28;20383;-75
2022/02/19 03:02:21;;;;;;;6.25;2.58;;;;;;;7.58;45.01;97215.13;5109941;28;20103;-75
2022/02/19 03:04:47;;;;;;;5.13;2.13;;;;;;;7.49;45.06;97213.44;5110203;28;20020;-76
2022/02/19 03:07:12;;;;;;;2.97;1.30;;;;;;;7.40;45.49;97218.78;5110847;28;20058;-75
2022/02/19 03:09:37;;;;;;;2.55;1.00;;;;;;;7.34;45.13;97212.63;5109984;28;20429;-75
2022/02/19 03:12:03;;;;;;;3.33;1.38;;;;;;;7.27;45.59;97212.25;5109310;28;20098;-75
2022/02/19 03:14:29;;;;;;;2.92;1.10;;;;;;;7.24;45.21;97229.22;5110205;28;20023;-75
2022/02/19 03:16:54;;;;;;;2.35;0.90;;;;;;;7.21;44.98;97224.38;5109372;28;20022;-76
2022/02/19 03:19:19;;;;;;;2.60;1.02;;;;;;;7.17;45.10;97220.63;5109406;28;20091;-75
2022/02/19 03:21:45;;;;;;;2.15;0.90;;;;;;;7.08;45.49;97232.28;5109332;28;20012;-76
2022/02/19 03:24:10;;;;;;;4.15;1.40;;;;;;;7.05;45.51;97240.22;5109677;28;20026;-75
2022/02/19 03:26:36;;;;;;;3.92;1.70;;;;;;;7.00;45.25;97235.69;5109727;28;20130;-76
2022/02/19 03:29:01;;;;;;;3.70;2.50;;;;;;;6.95;45.43;97235.78;5109888;28;20027;-75
2022/02/19 03:31:27;;;;;;;2.85;1.15;;;;;;;6.89;45.65;97234.28;5109431;28;20034;-76
2022/02/19 03:33:52;;;;;;;6.20;2.70;;;;;;;6.91;45.46;97242.97;5109848;28;20126;-76
2022/02/19 03:36:18;;;;;;;1.92;0.93;;;;;;;6.83;46.40;97241.75;5109482;28;20027;-76
2022/02/19 03:38:43;;;;;;;23.77;8.32;;;;;;;6.80;46.17;97239.63;5110099;28;20022;-76
2022/02/19 03:41:09;;;;;;;16.45;4.22;;;;;;;6.72;46.51;97232.97;5109146;28;20020;-75
2022/02/19 03:43:35;;;;;;;24.27;5.28;;;;;;;6.69;46.18;97231.63;5106059;28;20064;-75
2022/02/19 03:46:01;;;;;;;3.10;0.82;;;;;;;6.69;46.63;97239.00;5108574;28;20031;-75
2022/02/19 03:48:26;;;;;;;3.72;1.13;;;;;;;6.65;46.61;97238.78;5107436;28;20036;-75
2022/02/19 03:50:52;;;;;;;3.05;1.00;;;;;;;6.62;46.84;97247.56;5107064;28;20110;-76
2022/02/19 03:53:17;;;;;;;12.63;3.75;;;;;;;6.56;46.65;97237.84;5106890;28;20051;-76
2022/02/19 03:55:42;;;;;;;3.80;1.20;;;;;;;6.57;46.97;97241.41;5089874;28;20031;-76
2022/02/19 03:58:08;;;;;;;5.95;1.50;;;;;;;6.53;46.48;97238.47;5108556;28;20026;-75
2022/02/19 04:00:33;;;;;;;5.95;1.48;;;;;;;6.52;46.26;97250.50;5108254;28;20024;-75
2022/02/19 04:02:59;;;;;;;3.38;1.23;;;;;;;6.51;46.29;97254.31;5108491;28;20023;-75
2022/02/19 04:05:24;;;;;;;2.05;0.88;;;;;;;6.50;46.91;97258.94;5109697;28;20378;-75
2022/02/19 04:07:50;;;;;;;4.35;1.30;;;;;;;6.50;46.84;97263.59;5110906;28;20077;-76
2022/02/19 04:10:16;;;;;;;1.48;0.70;;;;;;;6.50;46.27;97274.50;5110886;28;20102;-75
2022/02/19 04:12:42;;;;;;;1.85;0.75;;;;;;;6.50;45.96;97274.50;5110415;28;20024;-75
2022/02/19 04:15:07;;;;;;;3.30;1.10;;;;;;;6.52;45.53;97283.19;5110915;28;20024;-75
2022/02/19 04:17:33;;;;;;;1.95;0.60;;;;;;;6.52;45.68;97280.44;5110039;28;20051;-76
2022/02/19 04:19:58;;;;;;;3.08;0.93;;;;;;;6.52;45.28;97294.88;5109579;28;20444;-76
2022/02/19 04:22:24;;;;;;;2.00;1.00;;;;;;;6.45;45.09;97297.16;5109746;28;20026;-75
2022/02/19 04:24:50;;;;;;;3.05;0.95;;;;;;;6.44;45.05;97301.00;5110683;28;20028;-75
2022/02/19 04:27:22;;;;;;;4.20;1.00;;;;;;;6.48;45.25;97298.50;5110359;28;20092;-75
2022/02/19 04:29:48;;;;;;;2.83;0.88;;;;;;;6.46;45.42;97309.66;5110948;28;20096;-76
2022/02/19 04:32:14;;;;;;;2.70;1.05;;;;;;;6.44;45.54;97303.72;5112992;28;20036;-75
2022/02/19 04:34:39;;;;;;;4.95;1.35;;;;;;;6.42;46.02;97307.84;5114557;28;20150;-76
2022/02/19 04:37:05;;;;;;;3.85;1.25;;;;;;;6.36;45.81;97318.00;5114666;28;20028;-75
2022/02/19 04:39:30;;;;;;;3.60;1.00;;;;;;;6.32;46.18;97319.69;5114698;28;20032;-75
2022/02/19 04:41:56;;;;;;;3.42;1.08;;;;;;;6.24;46.23;97323.91;5113520;28;20030;-75
2022/02/19 04:44:22;;;;;;;5.88;1.48;;;;;;;6.22;46.12;97324.22;5114096;28;20107;-75
2022/02/19 04:46:47;;;;;;;2.35;1.05;;;;;;;6.23;46.41;97335.91;5114631;28;20223;-75
2022/02/19 04:49:13;;;;;;;5.57;1.80;;;;;;;6.19;46.33;97340.31;5114433;28;20027;-76
2022/02/19 04:51:39;;;;;;;7.00;2.50;;;;;;;6.14;46.79;97330.31;5114211;28;20364;-76
2022/02/19 04:54:05;;;;;;;7.38;2.50;;;;;;;6.09;46.83;97335.84;5113918;28;20106;-76
2022/02/19 04:56:32;;;;;;;18.20;6.68;;;;;;;6.04;47.57;97339.44;5113877;28;20082;-75
2022/02/19 04:58:58;;;;;;;4.75;1.30;;;;;;;6.02;47.10;97341.66;5113828;28;20232;-75
2022/02/19 05:01:23;;;;;;;10.23;3.72;;;;;;;6.00;47.27;97343.88;5113721;28;20376;-75
2022/02/19 05:03:49;;;;;;;6.20;2.20;;;;;;;6.00;46.87;97348.44;5113484;28;20102;-76
2022/02/19 05:06:14;;;;;;;2.90;1.10;;;;;;;6.00;47.13;97349.31;5113225;28;20019;-75
2022/02/19 05:08:41;;;;;;;3.38;1.50;;;;;;;5.99;47.10;97353.09;5113516;28;20026;-76
2022/02/19 05:11:06;;;;;;;6.18;2.05;;;;;;;5.97;46.95;97352.59;5112606;28;20092;-76
2022/02/19 05:13:32;;;;;;;5.45;1.90;;;;;;;5.96;47.51;97359.91;5112966;28;20058;-76
2022/02/19 05:15:57;;;;;;;5.63;1.50;;;;;;;6.01;47.28;97348.22;5113284;28;20460;-75
2022/02/19 05:18:23;;;;;;;4.45;1.38;;;;;;;6.03;47.76;97346.00;5113202;28;20024;-75
2022/02/19 05:20:48;;;;;;;8.38;3.00;;;;;;;5.97;47.96;97347.94;5115300;27;20039;-75
2022/02/19 05:23:14;;;;;;;4.13;1.80;;;;;;;5.93;47.66;97348.81;5113118;28;20024;-75
2022/02/19 05:25:40;;;;;;;3.15;1.35;;;;;;;5.93;47.58;97354.28;5114712;27;20019;-75
2022/02/19 05:28:07;;;;;;;3.88;1.20;;;;;;;5.96;47.75;97359.13;5112811;28;20077;-76
2022/02/19 05:30:34;;;;;;;3.15;1.17;;;;;;;5.96;46.25;97353.69;5094597;28;20018;-76
2022/02/19 05:33:00;;;;;;;4.43;1.98;;;;;;;5.96;45.59;97356.41;5112668;28;20076;-76
2022/02/19 05:35:25;;;;;;;3.45;1.02;;;;;;;5.99;46.23;97360.44;5113158;28;20055;-75
2022/02/19 05:37:50;;;;;;;2.78;1.10;;;;;;;5.96;45.63;97359.13;5112987;28;20434;-76
2022/02/19 05:40:16;;;;;;;4.70;1.42;;;;;;;5.97;45.34;97358.03;5112789;28;20100;-75
2022/02/19 05:42:41;;;;;;;4.13;1.08;;;;;;;5.98;45.41;97359.66;5112099;28;20022;-75
2022/02/19 05:45:07;;;;;;;1.77;0.80;;;;;;;5.97;45.35;97369.72;5112635;28;20026;-75
2022/02/19 05:47:33;;;;;;;3.35;1.48;;;;;;;5.89;45.73;97366.84;5113811;27;20365;-75
2022/02/19 05:49:58;;;;;;;3.33;1.08;;;;;;;5.89;45.69;97381.28;5110735;28;20034;-75
2022/02/19 05:52:24;;;;;;;5.32;1.20;;;;;;;5.89;45.99;97375.81;5107563;28;20371;-75
2022/02/19 05:54:53;;;;;;;3.88;1.20;;;;;;;5.86;46.18;97389.19;5109992;28;20489;-74
2022/02/19 05:57:19;;;;;;;6.95;2.22;;;;;;;5.86;46.77;97386.47;5108304;27;20078;-73
2022/02/19 05:59:44;;;;;;;3.17;0.80;;;;;;;5.87;46.93;97398.97;5092950;28;20104;-74
2022/02/19 06:02:09;;;;;;;4.80;1.40;;;;;;;5.89;46.85;97416.66;5110871;28;20031;-74
2022/02/19 06:04:35;;;;;;;4.53;1.63;;;;;;;5.86;46.77;97425.38;5111614;28;20884;-74
2022/02/19 06:07:00;;;;;;;3.90;1.05;;;;;;;5.89;46.53;97419.38;5112447;28;20030;-74
2022/02/19 06:09:26;;;;;;;3.65;1.75;;;;;;;5.88;46.71;97415.03;5112094;28;20015;-74
2022/02/19 06:11:51;;;;;;;2.85;1.00;;;;;;;5.81;47.61;97425.44;5109017;28;20028;-74
2022/02/19 06:14:16;;;;;;;3.58;0.90;;;;;;;5.87;47.04;97416.13;5093895;28;20055;-74
2022/02/19 06:16:42;;;;;;;4.45;1.42;;;;;;;5.87;47.36;97418.03;5112410;28;20728;-74
2022/02/19 06:19:07;;;;;;;10.50;2.80;;;;;;;5.84;47.32;97424.03;5111726;28;20642;-73
2022/02/19 06:21:33;;;;;;;6.78;2.25;;;;;;;5.87;47.97;97427.00;5109733;28;20024;-74
2022/02/19 06:23:58;;;;;;;15.38;4.47;;;;;;;5.91;47.90;97436.19;5111476;28;20034;-74
2022/02/19 06:26:24;;;;;;;14.32;4.43;;;;;;;5.97;47.97;97447.84;5107871;28;20024;-74
2022/02/19 06:28:49;;;;;;;9.40;2.33;;;;;;;6.06;47.43;97453.47;5108510;28;20080;-74
2022/02/19 06:31:15;;;;;;;15.98;4.88;;;;;;;6.16;46.94;97447.91;5110123;28;20031;-74
2022/02/19 06:33:41;;;;;;;11.07;3.05;;;;;;;6.22;45.93;97464.97;5107855;28;20110;-74
2022/02/19 06:36:07;;;;;;;7.22;2.25;;;;;;;6.26;45.44;97471.47;5110489;28;20638;-74
2022/02/19 06:38:39;;;;;;;7.10;2.28;;;;;;;6.31;45.29;97467.88;5111175;28;20142;-73
2022/02/19 06:41:05;;;;;;;5.25;1.92;;;;;;;6.30;45.31;97456.16;5110320;28;20498;-74
2022/02/19 06:43:30;;;;;;;5.18;1.63;;;;;;;6.30;44.59;97458.09;5110546;28;20035;-73
2022/02/19 06:45:55;;;;;;;5.82;2.25;;;;;;;6.29;45.30;97473.59;5107502;28;20028;-74
2022/02/19 06:48:21;;;;;;;5.97;2.45;;;;;;;6.25;45.21;97486.19;5109939;28;20081;-73
2022/02/19 06:50:46;;;;;;;7.63;1.60;;;;;;;6.23;45.19;97466.59;5110362;28;20035;-74
2022/02/19 06:53:12;;;;;;;6.13;1.55;;;;;;;6.23;44.54;97491.09;5110839;28;20019;-73
2022/02/19 06:55:37;;;;;;;5.93;3.47;;;;;;;6.25;45.36;97510.69;5108646;28;20036;-73
2022/02/19 06:58:02;;;;;;;5.80;1.90;;;;;;;6.28;45.69;97503.84;5088610;28;20106;-73
2022/02/19 07:00:28;;;;;;;5.35;1.75;;;;;;;6.24;46.35;97503.63;5108347;28;20039;-74
2022/02/19 07:02:53;;;;;;;3.05;1.30;;;;;;;6.22;45.73;97517.53;5091535;28;20035;-74
2022/02/19 07:05:19;;;;;;;4.30;1.42;;;;;;;6.25;44.94;97519.69;5109460;28;20031;-73
2022/02/19 07:07:44;;;;;;;6.13;1.60;;;;;;;6.27;44.51;97526.75;5110968;28;20055;-74
2022/02/19 07:10:10;;;;;;;3.80;1.50;;;;;;;6.27;42.62;97529.47;5111095;28;20059;-74
2022/02/19 07:12:37;;;;;;;4.68;1.40;;;;;;;6.33;42.75;97517.38;5109392;28;20468;-74
2022/02/19 07:15:09;;;;;;;5.93;1.48;;;;;;;6.33;42.54;97515.47;5108396;28;20100;-74
2022/02/19 07:17:45;;;;;;;4.43;0.93;;;;;;;6.37;41.61;97538.31;5092768;28;20467;-75
2022/02/19 07:20:10;;;;;;;5.03;1.05;;;;;;;6.39;40.81;97536.13;5109434;28;20023;-75
2022/02/19 07:22:36;;;;;;;7.85;1.95;;;;;;;6.40;41.02;97532.28;5109729;28;20034;-74
2022/02/19 07:25:01;;;;;;;2.63;1.08;;;;;;;6.46;40.64;97537.69;5091238;28;20114;-74
2022/02/19 07:27:35;;;;;;;3.55;0.82;;;;;;;6.47;39.77;97545.53;5106613;28;20028;-74
2022/02/19 07:30:01;;;;;;;5.53;1.20;;;;;;;6.50;38.97;97534.06;5103655;28;20076;-73
2022/02/19 07:32:26;;;;;;;5.97;1.45;;;;;;;6.54;39.72;97517.94;5109303;28;20059;-73
2022/02/19 07:34:51;;;;;;;5.43;1.50;;;;;;;6.58;39.09;97564.50;5109707;28;20043;-75
2022/02/19 07:37:17;;;;;;;8.07;2.60;;;;;;;6.60;39.22;97559.56;5109676;28;20123;-74
2022/02/19 07:39:42;;;;;;;8.38;2.08;;;;;;;6.63;39.80;97550.81;5108591;28;20028;-74
2022/02/19 07:42:08;;;;;;;9.95;3.42;;;;;;;6.67;39.93;97576.38;5108269;28;20113;-74
2022/02/19 07:44:33;;;;;;;12.95;3.38;;;;;;;6.69;39.93;97574.16;5108578;28;20534;-74
2022/02/19 07:46:58;;;;;;;5.47;2.33;;;;;;;6.69;40.32;97606.84;5110058;28;20024;-74
2022/02/19 08:00:19;;;;;;;7.55;2.40;;;;;;;6.87;41.02;97629.81;5105532;28;20047;-74
2022/02/19 08:02:45;;;;;;;4.70;1.92;;;;;;;6.92;40.30;97650.72;5107358;28;20027;-75
2022/02/19 08:05:10;;;;;;;5.50;1.60;;;;;;;6.94;39.53;97646.59;5108258;28;20023;-75
2022/02/19 08:07:35;;;;;;;5.05;1.63;;;;;;;6.99;40.11;97653.91;5111049;28;20466;-75
2022/02/19 08:10:01;;;;;;;7.10;2.03;;;;;;;7.03;40.31;97665.84;5112396;28;20118;-75
2022/02/19 08:12:26;;;;;;;5.03;1.40;;;;;;;7.05;39.48;97650.00;5112726;28;20059;-74
2022/02/19 08:14:52;;;;;;;4.47;1.65;;;;;;;7.07;39.30;97658.72;5113292;28;20415;-74
2022/02/19 08:17:18;;;;;;;3.28;1.48;;;;;;;7.11;38.49;97650.75;5112791;28;20039;-75
2022/02/19 08:19:43;;;;;;;3.65;1.60;;;;;;;7.10;38.07;97657.28;5114303;28;20088;-74
2022/02/19 08:22:08;;;;;;;3.67;1.40;;;;;;;7.17;38.54;97665.09;5113789;28;20024;-74
2022/02/19 08:24:34;;;;;;;4.32;1.00;;;;;;;7.15;37.18;97676.31;5112746;28;20427;-74
2022/02/19 08:26:59;;;;;;;3.92;0.90;;;;;;;7.18;37.37;97670.28;5111842;28;20030;-75
2022/02/19 08:29:25;;;;;;;3.67;0.93;;;;;;;7.20;37.47;97673.53;5114055;28;20114;-75
2022/02/19 08:31:50;;;;;;;3.00;1.45;;;;;;;7.21;36.26;97679.78;5111667;28;20021;-75
2022/02/19 08:34:16;;;;;;;2.30;0.98;;;;;;;7.21;36.69;97671.59;5113193;28;20034;-75
2022/02/19 08:36:41;;;;;;;8.43;3.83;;;;;;;7.22;36.51;97686.84;5113328;28;20028;-74
2022/02/19 08:39:07;;;;;;;5.40;1.00;;;;;;;7.23;36.55;97672.13;5113118;28;20040;-74
2022/02/19 08:41:32;;;;;;;3.78;1.00;;;;;;;7.26;36.22;97685.16;5109257;28;20055;-76
2022/02/19 08:43:57;;;;;;;4.25;1.13;;;;;;;7.29;36.48;97684.59;5111304;28;20038;-74
2022/02/19 08:46:23;;;;;;;4.47;0.75;;;;;;;7.32;36.14;97689.47;5112081;28;20049;-74
2022/02/19 08:48:50;;;;;;;4.03;0.75;;;;;;;7.36;35.56;97693.22;5110623;28;20031;-74
2022/02/19 08:51:15;;;;;;;1.65;0.60;;;;;;;7.36;35.61;97708.75;5093368;28;20102;-74
2022/02/19 08:53:41;;;;;;;2.10;0.82;;;;;;;7.37;36.10;97696.75;5110388;28;20114;-71
2022/02/19 08:56:07;;;;;;;4.38;1.20;;;;;;;7.42;35.49;97707.59;5112241;28;20036;-74
2022/02/19 08:58:32;;;;;;;3.65;1.23;;;;;;;7.49;36.32;97708.03;5110668;28;20088;-74
2022/02/19 09:00:57;;;;;;;2.70;0.73;;;;;;;7.52;35.26;97734.75;5110961;28;20036;-74
2022/02/19 09:03:23;;;;;;;3.25;0.70;;;;;;;7.56;34.51;97730.31;5110644;28;20028;-74
2022/02/19 09:05:49;;;;;;;4.25;1.45;;;;;;;7.61;35.95;97734.88;5111573;28;20035;-74
2022/02/19 09:08:14;;;;;;;5.43;2.17;;;;;;;7.71;35.65;97728.50;5112253;28;20441;-74
2022/02/19 09:10:40;;;;;;;4.38;0.98;;;;;;;7.88;35.16;97747.06;5113285;27;20063;-74
2022/02/19 09:13:05;;;;;;;3.10;1.15;;;;;;;8.09;34.96;97761.22;5112114;28;20107;-73
2022/02/19 09:15:31;;;;;;;5.35;1.40;;;;;;;8.27;35.28;97747.81;5111988;28;20091;-73
2022/02/19 09:17:56;;;;;;;3.05;1.10;;;;;;;8.41;34.14;97745.94;5092550;28;20270;-74
2022/02/19 09:20:22;;;;;;;4.78;1.38;;;;;;;8.44;34.31;97750.00;5111722;28;20031;-74
2022/02/19 09:22:48;;;;;;;1.80;1.00;;;;;;;8.41;33.05;97756.88;5111833;28;20039;-74
2022/02/19 09:25:14;;;;;;;4.75;1.20;;;;;;;8.34;33.03;97756.44;5112746;28;20031;-74
2022/02/19 09:27:41;;;;;;;3.03;0.95;;;;;;;8.39;33.24;97758.28;5111819;28;20015;-74
2022/02/19 09:30:08;;;;;;;9.18;2.60;;;;;;;8.42;33.72;97771.34;5109872;28;20038;-74
2022/02/19 09:32:34;;;;;;;3.58;0.95;;;;;;;8.44;32.96;97763.66;5110500;28;20054;-74
2022/02/19 09:35:23;;;;;;;3.55;1.02;;;;;;;8.35;33.37;97769.00;5111976;28;20692;-74
2022/02/19 09:37:49;;;;;;;9.75;2.53;;;;;;;8.30;33.33;97775.38;5111561;28;20035;-74
2022/02/19 09:40:14;;;;;;;6.22;2.00;;;;;;;8.25;34.40;97780.91;5110091;28;20034;-75
2022/02/19 09:42:40;;;;;;;9.05;2.55;;;;;;;8.31;35.21;97782.47;5109435;28;20019;-73
2022/02/19 09:45:07;;;;;;;4.72;1.15;;;;;;;8.29;33.49;97795.59;5110463;28;20011;-73
2022/02/19 09:47:34;;;;;;;10.18;2.55;;;;;;;8.11;33.57;97791.78;5091957;28;21356;-73
2022/02/19 09:50:00;;;;;;;12.63;3.80;;;;;;;8.10;34.43;97789.34;5110573;28;20024;-74
2022/02/19 09:52:26;;;;;;;4.78;2.10;;;;;;;8.04;34.58;97810.47;5106246;28;20494;-75
2022/02/19 09:54:55;;;;;;;8.20;2.25;;;;;;;8.03;33.52;97823.28;5111110;28;20035;-75
2022/02/19 09:57:20;;;;;;;2.78;1.30;;;;;;;7.96;33.31;97828.31;5111951;28;20398;-75
2022/02/19 09:59:46;;;;;;;6.43;1.25;;;;;;;7.95;34.01;97831.34;5112392;28;20024;-74
2022/02/19 10:02:11;;;;;;;4.82;2.60;;;;;;;7.99;33.92;97835.09;5111805;28;20034;-75
2022/02/19 10:04:43;;;;;;;10.43;3.00;;;;;;;8.03;32.46;97826.03;5112197;28;20475;-75
2022/02/19 10:07:13;;;;;;;19.88;6.80;;;;;;;8.10;34.09;97852.97;5112063;28;20080;-74
2022/02/19 10:09:41;;;;;;;9.75;2.67;;;;;;;8.07;32.09;97839.91;5111894;28;20422;-74
2022/02/19 10:12:13;;;;;;;6.18;2.35;;;;;;;8.00;31.48;97848.44;5111340;28;20103;-74
2022/02/19 10:14:39;;;;;;;5.85;2.08;;;;;;;8.04;32.17;97845.97;5111745;28;20035;-74
2022/02/19 10:17:17;;;;;;;6.93;2.47;;;;;;;8.09;32.60;97869.66;5111982;28;20111;-74
2022/02/19 10:19:50;;;;;;;4.22;1.25;;;;;;;8.13;31.97;97881.63;5111602;28;20031;-74
2022/02/19 10:22:17;;;;;;;5.03;1.90;;;;;;;8.07;31.24;97890.97;5110995;28;20024;-74
2022/02/19 10:24:47;;;;;;;4.18;1.30;;;;;;;7.99;31.82;97876.88;5112149;28;20035;-74
2022/02/19 10:27:12;;;;;;;;;;;;;;;7.98;31.92;97894.34;5112165;28;20108;-75
2022/02/19 10:29:51;;;;;;;3.92;1.13;;;;;;;7.93;32.08;97883.53;5110186;28;20355;-74
2022/02/19 10:32:18;;;;;;;2.75;1.00;;;;;;;7.92;31.66;97892.00;5111428;28;20026;-75
2022/02/19 10:34:59;;;;;;;2.88;0.80;;;;;;;7.83;32.29;97876.25;5111647;28;20475;-73
2022/02/19 10:37:26;;;;;;;3.60;1.33;;;;;;;7.84;33.12;97882.53;5112235;28;20043;-74
2022/02/19 10:39:52;;;;;;;5.32;2.75;;;;;;;7.86;33.75;97894.78;5112014;28;20108;-74
2022/02/19 10:42:17;;;;;;;3.30;1.60;;;;;;;7.95;33.76;97875.03;5111877;28;20024;-74
2022/02/19 10:44:44;;;;;;;4.18;1.80;;;;;;;7.99;33.92;97892.47;5110838;28;20069;-74
2022/02/19 10:47:25;;;;;;;7.03;2.25;;;;;;;7.98;33.44;97888.09;5111622;28;20059;-74
2022/02/19 10:50:11;;;;;;;4.53;1.70;;;;;;;7.88;34.07;97887.13;5111809;28;20027;-74
2022/02/19 10:52:42;;;;;;;7.97;1.60;;;;;;;7.79;33.44;97894.31;5111499;28;20083;-75
2022/02/19 10:55:14;;;;;;;5.43;1.20;;;;;;;7.83;34.06;97892.63;5111739;28;20027;-75
2022/02/19 10:57:41;;;;;;;2.40;1.00;;;;;;;7.82;33.96;97906.59;5111694;28;20519;-75
2022/02/19 11:00:16;;;;;;;3.60;1.30;;;;;;;7.81;34.21;97916.69;5111278;28;20032;-75
2022/02/19 11:02:44;;;;;;;3.88;1.23;;;;;;;7.84;34.20;97907.13;5111383;28;20030;-75
2022/02/19 11:05:12;;;;;;;5.78;1.52;;;;;;;7.90;34.35;97886.84;5111691;28;20035;-76
2022/02/19 11:07:40;;;;;;;4.88;1.98;;;;;;;7.95;34.83;97910.53;5111791;28;20024;-75
2022/02/19 11:10:07;;;;;;;7.90;2.72;;;;;;;7.97;34.18;97921.97;5111210;28;20057;-75
2022/02/19 11:12:33;;;;;;;3.08;1.25;;;;;;;8.04;34.83;97914.25;5111127;28;20035;-75
2022/02/19 11:14:59;;;;;;;5.20;1.85;;;;;;;8.02;34.34;97925.44;5111659;28;20028;-76
2022/02/19 11:17:28;;;;;;;7.63;2.03;;;;;;;8.07;34.97;97924.59;5106489;28;20034;-75
2022/02/19 11:19:57;;;;;;;9.40;3.17;;;;;;;8.15;34.57;97915.72;5109763;28;20045;-75
2022/02/19 11:22:23;;;;;;;3.25;1.45;;;;;;;8.26;34.19;97921.88;5109877;28;20067;-76
2022/02/19 11:24:49;;;;;;;5.22;1.88;;;;;;;8.33;34.90;97919.59;5089931;28;20054;-75
2022/02/19 11:27:17;;;;;;;9.30;2.85;;;;;;;8.48;35.35;97917.72;5109859;28;20048;-76
2022/02/19 11:29:44;;;;;;;8.75;3.17;;;;;;;8.61;34.80;97921.66;5109675;28;20110;-76
2022/02/19 11:32:16;;;;;;;2.63;1.13;;;;;;;8.62;33.09;97939.69;5108297;28;20023;-75
2022/02/19 11:34:48;;;;;;;4.30;1.60;;;;;;;8.61;33.59;97922.50;5109337;27;20019;-76
2022/02/19 11:37:15;;;;;;;2.92;0.85;;;;;;;8.66;32.81;97921.59;5109731;27;20590;-76
2022/02/19 11:40:10;;;;;;;1.92;0.70;;;;;;;8.59;33.25;97924.72;5106831;28;20032;-76
2022/02/19 11:42:46;;;;;;;5.43;1.33;;;;;;;8.57;33.17;97917.91;5106263;28;20023;-76
2022/02/19 11:45:32;;;;;;;2.90;1.10;;;;;;;8.58;33.55;97936.75;5108750;28;20558;-77
2022/02/19 11:48:06;;;;;;;6.03;1.60;;;;;;;8.59;33.18;97953.94;5109490;28;20518;-77
2022/02/19 11:50:33;;;;;;;4.10;1.20;;;;;;;8.47;33.36;97946.16;5104804;28;20036;-77